sensor_id;sensor_type;location;lat;lon;timestamp;temperature;humidity
52016;DHT22;38032;53.326;6.472;2022-08-25T00:00:03;20.40;99.90
52016;DHT22;38032;53.326;6.472;2022-08-25T00:02:29;20.40;99.90
52016;DHT22;38032;53.326;6.472;2022-08-25T00:04:55;20.40;99.90
52016;DHT22;38032;53.326;6.472;2022-08-25T00:07:21;20.40;99.90
52016;DHT22;38032;53.326;6.472;2022-08-25T00:09:46;20.40;99.90
52016;DHT22;38032;53.326;6.472;2022-08-25T00:12:12;20.30;99.90
52016;DHT22;38032;53.326;6.472;2022-08-25T00:14:38;20.30;99.90
52016;DHT22;38032;53.326;6.472;2022-08-25T00:17:05;20.30;99.90
52016;DHT22;38032;53.326;6.472;2022-08-25T00:19:33;20.30;99.90
52016;DHT22;38032;53.326;6.472;2022-08-25T00:22:00;20.30;99.90
52016;DHT22;38032;53.326;6.472;2022-08-25T00:24:26;20.20;99.90
52016;DHT22;38032;53.326;6.472;2022-08-25T00:26:54;20.20;99.90
52016;DHT22;38032;53.326;6.472;2022-08-25T00:29:22;20.20;99.90
52016;DHT22;38032;53.326;6.472;2022-08-25T00:31:50;20.20;99.90
52016;DHT22;38032;53.326;6.472;2022-08-25T00:34:25;20.20;99.90
52016;DHT22;38032;53.326;6.472;2022-08-25T00:36:51;20.10;99.90
52016;DHT22;38032;53.326;6.472;2022-08-25T00:39:19;20.10;99.90
52016;DHT22;38032;53.326;6.472;2022-08-25T00:41:46;20.10;99.90
52016;DHT22;38032;53.326;6.472;2022-08-25T00:44:14;20.10;99.90
52016;DHT22;38032;53.326;6.472;2022-08-25T00:46:45;20.10;99.90
52016;DHT22;38032;53.326;6.472;2022-08-25T00:49:15;20.10;99.90
52016;DHT22;38032;53.326;6.472;2022-08-25T00:51:46;20.10;99.90
52016;DHT22;38032;53.326;6.472;2022-08-25T00:54:18;20.10;99.90
52016;DHT22;38032;53.326;6.472;2022-08-25T00:56:45;20.10;99.90
52016;DHT22;38032;53.326;6.472;2022-08-25T00:59:12;20.00;99.90
52016;DHT22;38032;53.326;6.472;2022-08-25T01:01:38;20.00;99.90
52016;DHT22;38032;53.326;6.472;2022-08-25T01:04:04;20.00;99.90
52016;DHT22;38032;53.326;6.472;2022-08-25T01:06:31;20.00;99.90
52016;DHT22;38032;53.326;6.472;2022-08-25T01:08:58;20.00;99.90
52016;DHT22;38032;53.326;6.472;2022-08-25T01:11:24;20.00;99.90
52016;DHT22;38032;53.326;6.472;2022-08-25T01:13:54;20.00;99.90
52016;DHT22;38032;53.326;6.472;2022-08-25T01:16:21;19.90;99.90
52016;DHT22;38032;53.326;6.472;2022-08-25T01:18:50;19.90;99.90
52016;DHT22;38032;53.326;6.472;2022-08-25T01:21:19;19.90;99.90
52016;DHT22;38032;53.326;6.472;2022-08-25T01:23:46;19.90;99.90
52016;DHT22;38032;53.326;6.472;2022-08-25T01:26:17;19.80;99.90
52016;DHT22;38032;53.326;6.472;2022-08-25T01:28:46;19.80;99.90
52016;DHT22;38032;53.326;6.472;2022-08-25T01:31:31;19.70;99.90
52016;DHT22;38032;53.326;6.472;2022-08-25T01:33:58;19.70;99.90
52016;DHT22;38032;53.326;6.472;2022-08-25T01:36:25;19.70;99.90
52016;DHT22;38032;53.326;6.472;2022-08-25T01:38:51;19.70;99.90
52016;DHT22;38032;53.326;6.472;2022-08-25T01:41:29;19.70;99.90
52016;DHT22;38032;53.326;6.472;2022-08-25T01:43:56;19.70;99.90
52016;DHT22;38032;53.326;6.472;2022-08-25T01:46:22;19.60;99.90
52016;DHT22;38032;53.326;6.472;2022-08-25T01:48:48;19.60;99.90
52016;DHT22;38032;53.326;6.472;2022-08-25T01:51:15;19.60;99.90
52016;DHT22;38032;53.326;6.472;2022-08-25T01:53:43;19.60;99.90
52016;DHT22;38032;53.326;6.472;2022-08-25T01:56:11;19.60;99.90
52016;DHT22;38032;53.326;6.472;2022-08-25T01:58:42;19.60;99.90
52016;DHT22;38032;53.326;6.472;2022-08-25T02:01:12;19.50;99.90
52016;DHT22;38032;53.326;6.472;2022-08-25T02:03:41;19.60;99.90
52016;DHT22;38032;53.326;6.472;2022-08-25T02:06:07;19.50;99.90
52016;DHT22;38032;53.326;6.472;2022-08-25T02:08:35;19.50;99.90
52016;DHT22;38032;53.326;6.472;2022-08-25T02:11:01;19.40;99.90
52016;DHT22;38032;53.326;6.472;2022-08-25T02:13:28;19.50;99.90
52016;DHT22;38032;53.326;6.472;2022-08-25T02:15:54;19.50;99.90
52016;DHT22;38032;53.326;6.472;2022-08-25T02:18:21;19.50;99.90
52016;DHT22;38032;53.326;6.472;2022-08-25T02:20:47;19.50;99.90
52016;DHT22;38032;53.326;6.472;2022-08-25T02:23:13;19.50;99.90
52016;DHT22;38032;53.326;6.472;2022-08-25T02:25:39;19.40;99.90
52016;DHT22;38032;53.326;6.472;2022-08-25T02:28:06;19.40;99.90
52016;DHT22;38032;53.326;6.472;2022-08-25T02:30:33;19.40;99.90
52016;DHT22;38032;53.326;6.472;2022-08-25T02:32:59;19.40;99.90
52016;DHT22;38032;53.326;6.472;2022-08-25T02:35:25;19.40;99.90
52016;DHT22;38032;53.326;6.472;2022-08-25T02:37:51;19.30;99.90
52016;DHT22;38032;53.326;6.472;2022-08-25T02:40:17;19.30;99.90
52016;DHT22;38032;53.326;6.472;2022-08-25T02:42:47;19.30;99.90
52016;DHT22;38032;53.326;6.472;2022-08-25T02:45:13;19.40;99.90
52016;DHT22;38032;53.326;6.472;2022-08-25T02:47:39;19.20;99.90
52016;DHT22;38032;53.326;6.472;2022-08-25T02:50:06;19.20;99.90
52016;DHT22;38032;53.326;6.472;2022-08-25T02:52:33;19.00;99.90
52016;DHT22;38032;53.326;6.472;2022-08-25T02:55:00;19.00;99.90
52016;DHT22;38032;53.326;6.472;2022-08-25T02:57:30;19.00;99.90
52016;DHT22;38032;53.326;6.472;2022-08-25T02:59:56;19.00;99.90
52016;DHT22;38032;53.326;6.472;2022-08-25T03:02:23;19.00;99.90
52016;DHT22;38032;53.326;6.472;2022-08-25T03:04:50;19.10;99.90
52016;DHT22;38032;53.326;6.472;2022-08-25T03:07:17;19.00;99.90
52016;DHT22;38032;53.326;6.472;2022-08-25T03:12:09;18.90;99.90
52016;DHT22;38032;53.326;6.472;2022-08-25T03:14:36;18.90;99.90
52016;DHT22;38032;53.326;6.472;2022-08-25T03:17:04;18.80;99.90
52016;DHT22;38032;53.326;6.472;2022-08-25T03:19:29;18.80;99.90
52016;DHT22;38032;53.326;6.472;2022-08-25T03:21:55;18.80;99.90
52016;DHT22;38032;53.326;6.472;2022-08-25T03:24:23;18.70;99.90
52016;DHT22;38032;53.326;6.472;2022-08-25T03:26:49;18.70;99.90
52016;DHT22;38032;53.326;6.472;2022-08-25T03:29:23;18.70;99.90
52016;DHT22;38032;53.326;6.472;2022-08-25T03:31:50;18.60;99.90
52016;DHT22;38032;53.326;6.472;2022-08-25T03:34:17;18.60;99.90
52016;DHT22;38032;53.326;6.472;2022-08-25T03:36:45;18.60;99.90
52016;DHT22;38032;53.326;6.472;2022-08-25T03:39:12;18.60;99.90
52016;DHT22;38032;53.326;6.472;2022-08-25T03:41:38;18.50;99.90
52016;DHT22;38032;53.326;6.472;2022-08-25T03:44:05;18.50;99.90
52016;DHT22;38032;53.326;6.472;2022-08-25T03:46:37;18.50;99.90
52016;DHT22;38032;53.326;6.472;2022-08-25T03:49:04;18.50;99.90
52016;DHT22;38032;53.326;6.472;2022-08-25T03:51:33;18.50;99.90
52016;DHT22;38032;53.326;6.472;2022-08-25T03:54:00;18.50;99.90
52016;DHT22;38032;53.326;6.472;2022-08-25T03:56:26;18.50;99.90
52016;DHT22;38032;53.326;6.472;2022-08-25T03:58:53;18.40;99.90
52016;DHT22;38032;53.326;6.472;2022-08-25T04:01:18;18.40;99.90
52016;DHT22;38032;53.326;6.472;2022-08-25T04:03:45;18.40;99.90
52016;DHT22;38032;53.326;6.472;2022-08-25T04:06:11;18.40;99.90
52016;DHT22;38032;53.326;6.472;2022-08-25T04:08:37;18.40;99.90
52016;DHT22;38032;53.326;6.472;2022-08-25T04:11:09;18.30;99.90
52016;DHT22;38032;53.326;6.472;2022-08-25T04:13:35;18.30;99.90
52016;DHT22;38032;53.326;6.472;2022-08-25T04:16:03;18.30;99.90
52016;DHT22;38032;53.326;6.472;2022-08-25T04:18:34;18.20;99.90
52016;DHT22;38032;53.326;6.472;2022-08-25T04:21:04;18.20;99.90
52016;DHT22;38032;53.326;6.472;2022-08-25T04:23:30;18.20;99.90
52016;DHT22;38032;53.326;6.472;2022-08-25T04:25:56;18.20;99.90
52016;DHT22;38032;53.326;6.472;2022-08-25T04:28:22;18.10;99.90
52016;DHT22;38032;53.326;6.472;2022-08-25T04:30:48;18.10;99.90
52016;DHT22;38032;53.326;6.472;2022-08-25T04:33:13;18.10;99.90
52016;DHT22;38032;53.326;6.472;2022-08-25T04:35:39;18.10;99.90
52016;DHT22;38032;53.326;6.472;2022-08-25T04:38:06;18.10;99.90
52016;DHT22;38032;53.326;6.472;2022-08-25T04:40:31;18.10;99.90
52016;DHT22;38032;53.326;6.472;2022-08-25T04:42:58;18.10;99.90
52016;DHT22;38032;53.326;6.472;2022-08-25T04:45:23;18.10;99.90
52016;DHT22;38032;53.326;6.472;2022-08-25T04:47:49;18.10;99.90
52016;DHT22;38032;53.326;6.472;2022-08-25T04:50:15;18.00;99.90
52016;DHT22;38032;53.326;6.472;2022-08-25T04:52:41;18.00;99.90
52016;DHT22;38032;53.326;6.472;2022-08-25T04:55:07;18.00;99.90
52016;DHT22;38032;53.326;6.472;2022-08-25T04:57:33;18.10;99.90
52016;DHT22;38032;53.326;6.472;2022-08-25T04:59:58;18.10;99.90
52016;DHT22;38032;53.326;6.472;2022-08-25T05:02:24;18.10;99.90
52016;DHT22;38032;53.326;6.472;2022-08-25T05:04:50;18.10;99.90
52016;DHT22;38032;53.326;6.472;2022-08-25T05:07:16;18.10;99.90
52016;DHT22;38032;53.326;6.472;2022-08-25T05:09:42;18.10;99.90
52016;DHT22;38032;53.326;6.472;2022-08-25T05:12:08;18.20;99.90
52016;DHT22;38032;53.326;6.472;2022-08-25T05:14:33;18.20;99.90
52016;DHT22;38032;53.326;6.472;2022-08-25T05:17:00;18.10;99.90
52016;DHT22;38032;53.326;6.472;2022-08-25T05:19:26;18.20;99.90
52016;DHT22;38032;53.326;6.472;2022-08-25T05:21:52;18.20;99.90
52016;DHT22;38032;53.326;6.472;2022-08-25T05:24:19;18.20;99.90
52016;DHT22;38032;53.326;6.472;2022-08-25T05:26:45;18.20;99.90
52016;DHT22;38032;53.326;6.472;2022-08-25T05:29:12;18.30;99.90
52016;DHT22;38032;53.326;6.472;2022-08-25T05:31:38;18.30;99.90
52016;DHT22;38032;53.326;6.472;2022-08-25T05:34:06;18.30;99.90
52016;DHT22;38032;53.326;6.472;2022-08-25T05:36:32;18.40;99.90
52016;DHT22;38032;53.326;6.472;2022-08-25T05:38:59;18.40;99.90
52016;DHT22;38032;53.326;6.472;2022-08-25T05:41:27;18.50;99.90
52016;DHT22;38032;53.326;6.472;2022-08-25T05:43:53;18.50;99.90
52016;DHT22;38032;53.326;6.472;2022-08-25T05:46:20;18.60;99.90
52016;DHT22;38032;53.326;6.472;2022-08-25T05:48:47;18.60;99.90
52016;DHT22;38032;53.326;6.472;2022-08-25T05:51:14;18.60;99.90
52016;DHT22;38032;53.326;6.472;2022-08-25T05:53:42;18.70;99.90
52016;DHT22;38032;53.326;6.472;2022-08-25T05:56:09;18.70;99.90
52016;DHT22;38032;53.326;6.472;2022-08-25T05:58:36;18.80;99.90
52016;DHT22;38032;53.326;6.472;2022-08-25T06:01:03;18.80;99.90
52016;DHT22;38032;53.326;6.472;2022-08-25T06:03:48;18.90;99.90
52016;DHT22;38032;53.326;6.472;2022-08-25T06:06:15;18.90;99.90
52016;DHT22;38032;53.326;6.472;2022-08-25T06:08:42;19.00;99.90
52016;DHT22;38032;53.326;6.472;2022-08-25T06:11:09;19.10;99.90
52016;DHT22;38032;53.326;6.472;2022-08-25T06:13:35;19.20;99.90
52016;DHT22;38032;53.326;6.472;2022-08-25T06:16:01;19.20;99.90
52016;DHT22;38032;53.326;6.472;2022-08-25T06:18:27;19.30;99.90
52016;DHT22;38032;53.326;6.472;2022-08-25T06:20:53;19.30;99.90
52016;DHT22;38032;53.326;6.472;2022-08-25T06:23:18;19.30;99.90
52016;DHT22;38032;53.326;6.472;2022-08-25T06:25:52;19.40;99.90
52016;DHT22;38032;53.326;6.472;2022-08-25T06:28:18;19.50;99.90
52016;DHT22;38032;53.326;6.472;2022-08-25T06:30:45;19.50;99.90
52016;DHT22;38032;53.326;6.472;2022-08-25T06:33:12;19.50;99.90
52016;DHT22;38032;53.326;6.472;2022-08-25T06:35:41;19.60;99.90
52016;DHT22;38032;53.326;6.472;2022-08-25T06:38:07;19.70;99.90
52016;DHT22;38032;53.326;6.472;2022-08-25T06:40:32;19.70;99.90
52016;DHT22;38032;53.326;6.472;2022-08-25T06:42:58;19.80;99.90
52016;DHT22;38032;53.326;6.472;2022-08-25T06:45:24;19.80;99.90
52016;DHT22;38032;53.326;6.472;2022-08-25T06:47:50;19.90;99.90
52016;DHT22;38032;53.326;6.472;2022-08-25T06:50:16;20.00;99.90
52016;DHT22;38032;53.326;6.472;2022-08-25T06:52:42;20.00;99.90
52016;DHT22;38032;53.326;6.472;2022-08-25T06:55:08;20.10;99.90
52016;DHT22;38032;53.326;6.472;2022-08-25T06:57:34;20.20;99.90
52016;DHT22;38032;53.326;6.472;2022-08-25T07:00:03;20.30;99.90
52016;DHT22;38032;53.326;6.472;2022-08-25T07:02:30;20.30;99.90
52016;DHT22;38032;53.326;6.472;2022-08-25T07:04:56;20.40;99.90
52016;DHT22;38032;53.326;6.472;2022-08-25T07:07:22;20.50;99.90
52016;DHT22;38032;53.326;6.472;2022-08-25T07:09:47;20.60;99.90
52016;DHT22;38032;53.326;6.472;2022-08-25T07:12:13;20.70;99.90
52016;DHT22;38032;53.326;6.472;2022-08-25T07:14:39;20.90;99.90
52016;DHT22;38032;53.326;6.472;2022-08-25T07:17:05;21.10;99.90
52016;DHT22;38032;53.326;6.472;2022-08-25T07:19:30;21.20;99.90
52016;DHT22;38032;53.326;6.472;2022-08-25T07:21:56;21.30;99.90
52016;DHT22;38032;53.326;6.472;2022-08-25T07:24:22;21.60;99.90
52016;DHT22;38032;53.326;6.472;2022-08-25T07:26:48;21.80;99.90
52016;DHT22;38032;53.326;6.472;2022-08-25T07:29:22;21.90;99.90
52016;DHT22;38032;53.326;6.472;2022-08-25T07:31:48;21.90;99.90
52016;DHT22;38032;53.326;6.472;2022-08-25T07:34:14;22.00;99.90
52016;DHT22;38032;53.326;6.472;2022-08-25T07:36:59;22.00;99.90
52016;DHT22;38032;53.326;6.472;2022-08-25T07:39:25;22.10;99.90
52016;DHT22;38032;53.326;6.472;2022-08-25T07:41:52;22.20;99.90
52016;DHT22;38032;53.326;6.472;2022-08-25T07:44:19;22.20;99.90
52016;DHT22;38032;53.326;6.472;2022-08-25T07:46:45;22.20;99.90
52016;DHT22;38032;53.326;6.472;2022-08-25T07:49:11;22.30;99.90
52016;DHT22;38032;53.326;6.472;2022-08-25T07:51:37;22.40;99.90
52016;DHT22;38032;53.326;6.472;2022-08-25T07:54:04;22.50;99.90
52016;DHT22;38032;53.326;6.472;2022-08-25T07:56:30;23.00;99.90
52016;DHT22;38032;53.326;6.472;2022-08-25T07:58:56;23.20;99.90
52016;DHT22;38032;53.326;6.472;2022-08-25T08:01:23;23.20;99.90
52016;DHT22;38032;53.326;6.472;2022-08-25T08:03:49;23.30;99.90
52016;DHT22;38032;53.326;6.472;2022-08-25T08:06:18;23.30;99.90
52016;DHT22;38032;53.326;6.472;2022-08-25T08:08:45;23.30;99.90
52016;DHT22;38032;53.326;6.472;2022-08-25T08:11:16;23.30;99.90
52016;DHT22;38032;53.326;6.472;2022-08-25T08:13:43;23.40;99.90
52016;DHT22;38032;53.326;6.472;2022-08-25T08:16:10;23.50;99.90
52016;DHT22;38032;53.326;6.472;2022-08-25T08:18:36;23.60;99.90
52016;DHT22;38032;53.326;6.472;2022-08-25T08:21:02;23.80;99.90
52016;DHT22;38032;53.326;6.472;2022-08-25T08:23:28;24.00;99.90
52016;DHT22;38032;53.326;6.472;2022-08-25T08:25:54;24.10;99.90
52016;DHT22;38032;53.326;6.472;2022-08-25T08:28:21;24.20;99.90
52016;DHT22;38032;53.326;6.472;2022-08-25T08:30:47;24.20;99.90
52016;DHT22;38032;53.326;6.472;2022-08-25T08:33:13;24.30;99.90
52016;DHT22;38032;53.326;6.472;2022-08-25T08:35:39;24.30;99.90
52016;DHT22;38032;53.326;6.472;2022-08-25T08:38:05;24.40;99.90
52016;DHT22;38032;53.326;6.472;2022-08-25T08:40:40;24.40;99.90
52016;DHT22;38032;53.326;6.472;2022-08-25T08:43:29;24.50;99.90
52016;DHT22;38032;53.326;6.472;2022-08-25T08:45:56;24.60;99.90
52016;DHT22;38032;53.326;6.472;2022-08-25T08:51:14;24.70;99.90
52016;DHT22;38032;53.326;6.472;2022-08-25T08:53:49;24.80;99.90
52016;DHT22;38032;53.326;6.472;2022-08-25T08:56:22;24.90;99.90
52016;DHT22;38032;53.326;6.472;2022-08-25T08:58:56;25.00;99.90
52016;DHT22;38032;53.326;6.472;2022-08-25T09:01:39;25.10;99.90
52016;DHT22;38032;53.326;6.472;2022-08-25T09:04:08;25.20;99.90
52016;DHT22;38032;53.326;6.472;2022-08-25T09:06:42;25.20;99.90
52016;DHT22;38032;53.326;6.472;2022-08-25T09:09:11;25.30;99.90
52016;DHT22;38032;53.326;6.472;2022-08-25T09:11:50;25.50;99.90
52016;DHT22;38032;53.326;6.472;2022-08-25T09:14:35;25.70;99.90
52016;DHT22;38032;53.326;6.472;2022-08-25T09:17:14;26.10;99.80
52016;DHT22;38032;53.326;6.472;2022-08-25T09:20:06;26.60;98.70
52016;DHT22;38032;53.326;6.472;2022-08-25T09:25:56;29.90;93.60
52016;DHT22;38032;53.326;6.472;2022-08-25T09:28:31;30.30;91.40
52016;DHT22;38032;53.326;6.472;2022-08-25T09:31:10;32.80;78.00
52016;DHT22;38032;53.326;6.472;2022-08-25T09:33:36;33.60;73.90
52016;DHT22;38032;53.326;6.472;2022-08-25T09:36:04;34.90;68.80
52016;DHT22;38032;53.326;6.472;2022-08-25T09:38:30;36.00;64.50
52016;DHT22;38032;53.326;6.472;2022-08-25T09:40:58;36.90;61.40
52016;DHT22;38032;53.326;6.472;2022-08-25T09:43:31;37.70;58.70
52016;DHT22;38032;53.326;6.472;2022-08-25T09:46:02;38.50;56.50
52016;DHT22;38032;53.326;6.472;2022-08-25T09:51:18;40.20;55.60
52016;DHT22;38032;53.326;6.472;2022-08-25T09:53:51;40.40;52.50
52016;DHT22;38032;53.326;6.472;2022-08-25T09:56:20;41.00;51.20
52016;DHT22;38032;53.326;6.472;2022-08-25T09:58:47;41.40;49.30
52016;DHT22;38032;53.326;6.472;2022-08-25T10:01:18;41.70;48.40
52016;DHT22;38032;53.326;6.472;2022-08-25T10:04:00;42.00;48.30
52016;DHT22;38032;53.326;6.472;2022-08-25T10:06:32;42.30;47.80
52016;DHT22;38032;53.326;6.472;2022-08-25T10:09:04;42.70;46.60
52016;DHT22;38032;53.326;6.472;2022-08-25T10:11:41;42.90;46.10
52016;DHT22;38032;53.326;6.472;2022-08-25T10:17:11;43.10;45.50
52016;DHT22;38032;53.326;6.472;2022-08-25T10:19:37;43.20;44.80
52016;DHT22;38032;53.326;6.472;2022-08-25T10:22:06;43.40;44.20
52016;DHT22;38032;53.326;6.472;2022-08-25T10:24:33;43.40;43.70
52016;DHT22;38032;53.326;6.472;2022-08-25T10:27:03;43.40;43.20
52016;DHT22;38032;53.326;6.472;2022-08-25T10:30:03;43.40;42.80
52016;DHT22;38032;53.326;6.472;2022-08-25T10:32:51;43.30;43.90
52016;DHT22;38032;53.326;6.472;2022-08-25T10:38:22;43.00;43.30
52016;DHT22;38032;53.326;6.472;2022-08-25T10:41:22;42.80;43.70
52016;DHT22;38032;53.326;6.472;2022-08-25T10:44:01;42.70;44.00
52016;DHT22;38032;53.326;6.472;2022-08-25T10:47:03;42.60;44.70
52016;DHT22;38032;53.326;6.472;2022-08-25T10:49:39;42.70;44.10
52016;DHT22;38032;53.326;6.472;2022-08-25T10:52:22;42.60;43.30
52016;DHT22;38032;53.326;6.472;2022-08-25T10:55:05;42.50;43.20
52016;DHT22;38032;53.326;6.472;2022-08-25T11:00:31;42.20;42.80
52016;DHT22;38032;53.326;6.472;2022-08-25T11:05:38;42.10;42.50
52016;DHT22;38032;53.326;6.472;2022-08-25T11:08:18;41.90;43.00
52016;DHT22;38032;53.326;6.472;2022-08-25T11:10:56;41.70;43.70
52016;DHT22;38032;53.326;6.472;2022-08-25T11:13:43;41.60;43.50
52016;DHT22;38032;53.326;6.472;2022-08-25T11:16:14;41.40;44.10
52016;DHT22;38032;53.326;6.472;2022-08-25T11:18:54;41.20;43.20
52016;DHT22;38032;53.326;6.472;2022-08-25T11:21:38;41.00;43.50
52016;DHT22;38032;53.326;6.472;2022-08-25T11:26:55;40.30;43.60
52016;DHT22;38032;53.326;6.472;2022-08-25T11:29:24;39.90;43.40
52016;DHT22;38032;53.326;6.472;2022-08-25T11:31:52;39.70;43.80
52016;DHT22;38032;53.326;6.472;2022-08-25T11:34:19;39.40;44.30
52016;DHT22;38032;53.326;6.472;2022-08-25T11:36:55;39.10;44.70
52016;DHT22;38032;53.326;6.472;2022-08-25T11:39:36;38.80;45.00
52016;DHT22;38032;53.326;6.472;2022-08-25T11:42:30;38.60;44.40
52016;DHT22;38032;53.326;6.472;2022-08-25T11:45:11;38.30;45.70
52016;DHT22;38032;53.326;6.472;2022-08-25T11:48:04;38.20;45.90
52016;DHT22;38032;53.326;6.472;2022-08-25T11:50:53;38.00;45.90
52016;DHT22;38032;53.326;6.472;2022-08-25T11:53:26;37.80;47.00
52016;DHT22;38032;53.326;6.472;2022-08-25T11:55:54;37.60;47.10
52016;DHT22;38032;53.326;6.472;2022-08-25T11:58:40;37.40;47.50
52016;DHT22;38032;53.326;6.472;2022-08-25T12:01:10;37.30;48.10
52016;DHT22;38032;53.326;6.472;2022-08-25T12:06:26;36.60;46.50
52016;DHT22;38032;53.326;6.472;2022-08-25T12:29:54;34.70;48.50
52016;DHT22;38032;53.326;6.472;2022-08-25T12:35:18;34.60;49.90
52016;DHT22;38032;53.326;6.472;2022-08-25T12:37:57;34.50;50.20
52016;DHT22;38032;53.326;6.472;2022-08-25T12:40:29;34.50;49.80
52016;DHT22;38032;53.326;6.472;2022-08-25T12:43:09;34.40;50.00
52016;DHT22;38032;53.326;6.472;2022-08-25T12:45:40;34.30;49.30
52016;DHT22;38032;53.326;6.472;2022-08-25T12:53:40;34.00;49.80
52016;DHT22;38032;53.326;6.472;2022-08-25T12:56:15;33.90;49.70
52016;DHT22;38032;53.326;6.472;2022-08-25T12:58:52;33.90;49.90
52016;DHT22;38032;53.326;6.472;2022-08-25T13:12:54;33.60;50.60
52016;DHT22;38032;53.326;6.472;2022-08-25T13:15:41;33.60;50.10
52016;DHT22;38032;53.326;6.472;2022-08-25T13:18:20;33.60;50.00
52016;DHT22;38032;53.326;6.472;2022-08-25T13:20:48;33.60;50.30
52016;DHT22;38032;53.326;6.472;2022-08-25T13:23:21;33.50;49.80
52016;DHT22;38032;53.326;6.472;2022-08-25T13:25:51;33.50;50.10
52016;DHT22;38032;53.326;6.472;2022-08-25T13:28:29;33.50;49.80
52016;DHT22;38032;53.326;6.472;2022-08-25T13:31:00;33.50;50.20
52016;DHT22;38032;53.326;6.472;2022-08-25T13:33:27;33.40;50.20
52016;DHT22;38032;53.326;6.472;2022-08-25T13:35:55;33.50;50.20
52016;DHT22;38032;53.326;6.472;2022-08-25T13:38:41;33.40;49.40
52016;DHT22;38032;53.326;6.472;2022-08-25T13:41:07;33.40;49.40
52016;DHT22;38032;53.326;6.472;2022-08-25T13:43:35;33.40;49.70
52016;DHT22;38032;53.326;6.472;2022-08-25T13:46:01;33.50;50.10
52016;DHT22;38032;53.326;6.472;2022-08-25T13:48:39;33.50;49.80
52016;DHT22;38032;53.326;6.472;2022-08-25T13:51:09;33.40;48.90
52016;DHT22;38032;53.326;6.472;2022-08-25T13:53:40;33.40;48.90
52016;DHT22;38032;53.326;6.472;2022-08-25T13:56:24;33.30;48.50
52016;DHT22;38032;53.326;6.472;2022-08-25T13:58:51;33.30;49.10
52016;DHT22;38032;53.326;6.472;2022-08-25T14:01:28;33.30;48.80
52016;DHT22;38032;53.326;6.472;2022-08-25T14:04:18;33.30;48.90
52016;DHT22;38032;53.326;6.472;2022-08-25T14:06:43;33.30;49.30
52016;DHT22;38032;53.326;6.472;2022-08-25T14:09:16;33.20;50.00
52016;DHT22;38032;53.326;6.472;2022-08-25T14:11:45;33.20;50.10
52016;DHT22;38032;53.326;6.472;2022-08-25T14:14:31;33.20;50.50
52016;DHT22;38032;53.326;6.472;2022-08-25T14:17:04;33.20;50.10
52016;DHT22;38032;53.326;6.472;2022-08-25T14:19:31;33.20;49.70
52016;DHT22;38032;53.326;6.472;2022-08-25T14:21:57;33.10;48.60
52016;DHT22;38032;53.326;6.472;2022-08-25T14:24:30;33.10;48.40
52016;DHT22;38032;53.326;6.472;2022-08-25T14:26:58;33.10;48.60
52016;DHT22;38032;53.326;6.472;2022-08-25T14:29:23;33.10;49.80
52016;DHT22;38032;53.326;6.472;2022-08-25T14:31:50;33.10;50.80
52016;DHT22;38032;53.326;6.472;2022-08-25T14:34:21;33.10;50.40
52016;DHT22;38032;53.326;6.472;2022-08-25T14:36:48;33.10;50.60
52016;DHT22;38032;53.326;6.472;2022-08-25T14:39:17;33.10;50.80
52016;DHT22;38032;53.326;6.472;2022-08-25T14:41:43;33.10;50.80
52016;DHT22;38032;53.326;6.472;2022-08-25T14:44:11;33.10;50.90
52016;DHT22;38032;53.326;6.472;2022-08-25T14:46:50;33.00;50.50
52016;DHT22;38032;53.326;6.472;2022-08-25T14:49:22;33.00;49.90
52016;DHT22;38032;53.326;6.472;2022-08-25T14:51:50;33.00;48.70
52016;DHT22;38032;53.326;6.472;2022-08-25T14:54:16;32.90;48.60
52016;DHT22;38032;53.326;6.472;2022-08-25T14:56:44;32.90;48.40
52016;DHT22;38032;53.326;6.472;2022-08-25T14:59:11;32.80;48.50
52016;DHT22;38032;53.326;6.472;2022-08-25T15:01:38;32.80;48.70
52016;DHT22;38032;53.326;6.472;2022-08-25T15:04:09;32.70;48.70
52016;DHT22;38032;53.326;6.472;2022-08-25T15:06:37;32.70;48.50
52016;DHT22;38032;53.326;6.472;2022-08-25T15:09:04;32.60;48.20
52016;DHT22;38032;53.326;6.472;2022-08-25T15:11:40;32.60;48.60
52016;DHT22;38032;53.326;6.472;2022-08-25T15:14:10;32.50;49.10
52016;DHT22;38032;53.326;6.472;2022-08-25T15:16:40;32.50;49.40
52016;DHT22;38032;53.326;6.472;2022-08-25T15:19:09;32.30;56.20
52016;DHT22;38032;53.326;6.472;2022-08-25T15:21:36;32.40;50.60
52016;DHT22;38032;53.326;6.472;2022-08-25T15:24:05;32.50;50.80
52016;DHT22;38032;53.326;6.472;2022-08-25T15:26:39;32.30;50.40
52016;DHT22;38032;53.326;6.472;2022-08-25T15:29:06;32.20;57.40
52016;DHT22;38032;53.326;6.472;2022-08-25T15:31:33;32.20;54.20
52016;DHT22;38032;53.326;6.472;2022-08-25T15:33:59;32.20;61.00
52016;DHT22;38032;53.326;6.472;2022-08-25T15:36:25;32.00;53.60
52016;DHT22;38032;53.326;6.472;2022-08-25T15:38:51;32.00;56.10
52016;DHT22;38032;53.326;6.472;2022-08-25T15:41:18;32.00;59.90
52016;DHT22;38032;53.326;6.472;2022-08-25T15:43:45;31.90;50.00
52016;DHT22;38032;53.326;6.472;2022-08-25T15:46:14;31.90;50.50
52016;DHT22;38032;53.326;6.472;2022-08-25T15:48:41;31.90;50.60
52016;DHT22;38032;53.326;6.472;2022-08-25T15:53:54;31.70;51.70
52016;DHT22;38032;53.326;6.472;2022-08-25T15:56:20;31.70;51.30
52016;DHT22;38032;53.326;6.472;2022-08-25T15:58:48;31.60;52.10
52016;DHT22;38032;53.326;6.472;2022-08-25T16:01:20;31.50;52.20
52016;DHT22;38032;53.326;6.472;2022-08-25T16:03:56;31.50;52.60
52016;DHT22;38032;53.326;6.472;2022-08-25T16:06:28;31.40;52.50
52016;DHT22;38032;53.326;6.472;2022-08-25T16:08:54;31.40;52.50
52016;DHT22;38032;53.326;6.472;2022-08-25T16:11:23;31.40;53.10
52016;DHT22;38032;53.326;6.472;2022-08-25T16:13:51;31.30;52.60
52016;DHT22;38032;53.326;6.472;2022-08-25T16:16:20;31.30;52.50
52016;DHT22;38032;53.326;6.472;2022-08-25T16:18:47;31.20;52.80
52016;DHT22;38032;53.326;6.472;2022-08-25T16:21:17;31.10;53.50
52016;DHT22;38032;53.326;6.472;2022-08-25T16:23:44;31.10;53.80
52016;DHT22;38032;53.326;6.472;2022-08-25T16:26:12;31.10;53.60
52016;DHT22;38032;53.326;6.472;2022-08-25T16:28:41;31.00;54.10
52016;DHT22;38032;53.326;6.472;2022-08-25T16:31:09;31.00;54.90
52016;DHT22;38032;53.326;6.472;2022-08-25T16:33:35;30.90;55.40
52016;DHT22;38032;53.326;6.472;2022-08-25T16:36:05;30.80;55.10
52016;DHT22;38032;53.326;6.472;2022-08-25T16:38:31;30.80;55.10
52016;DHT22;38032;53.326;6.472;2022-08-25T16:40:58;30.90;61.20
52016;DHT22;38032;53.326;6.472;2022-08-25T16:43:25;30.70;55.40
52016;DHT22;38032;53.326;6.472;2022-08-25T16:46:00;30.60;55.70
52016;DHT22;38032;53.326;6.472;2022-08-25T16:48:29;30.60;56.60
52016;DHT22;38032;53.326;6.472;2022-08-25T16:50:56;30.50;56.20
52016;DHT22;38032;53.326;6.472;2022-08-25T16:53:23;30.40;56.70
52016;DHT22;38032;53.326;6.472;2022-08-25T16:56:08;30.40;57.40